Time;durP1;ratioP1;P1;durP2;ratioP2;P2;SDS_P1;SDS_P2;PMS_P1;PMS_P2;Temp;Humidity;BMP_temperature;BMP_pressure;BME280_temperature;BME280_humidity;BME280_pressure;Samples;Min_cycle;Max_cycle;Signal;HPM_P1;HPM_P2
2023/03/16 00:01:06;;;;;;;15.00;12.60;;;2.00;99.90;;;;;;5011071;28;20337;-68
2023/03/16 00:03:32;;;;;;;13.63;11.40;;;2.50;99.90;;;;;;5008512;28;20557;-67
2023/03/16 00:05:57;;;;;;;14.93;13.35;;;2.30;99.90;;;;;;5005286;28;20181;-67
2023/03/16 00:08:23;;;;;;;15.20;13.53;;;2.80;99.90;;;;;;5011626;28;20767;-67
2023/03/16 00:10:49;;;;;;;15.83;12.40;;;2.90;99.90;;;;;;5002789;28;20323;-68
2023/03/16 00:13:22;;;;;;;15.57;12.50;;;2.00;99.90;;;;;;5011708;28;20323;-68
2023/03/16 00:15:53;;;;;;;13.43;12.15;;;2.40;99.90;;;;;;5010614;28;20302;-68
2023/03/16 00:18:20;;;;;;;15.57;12.00;;;2.60;99.90;;;;;;5007394;28;20215;-67
2023/03/16 00:20:51;;;;;;;15.55;11.13;;;2.40;99.90;;;;;;5010701;28;20214;-68
2023/03/16 00:23:16;;;;;;;20.08;15.10;;;2.30;99.90;;;;;;5011430;28;20258;-67
2023/03/16 00:25:42;;;;;;;15.73;14.23;;;2.40;99.90;;;;;;5010362;28;20669;-68
2023/03/16 00:28:07;;;;;;;17.80;14.10;;;2.30;99.90;;;;;;5010909;28;20184;-68
2023/03/16 00:30:33;;;;;;;15.47;13.70;;;2.20;99.90;;;;;;5011189;28;20219;-67
2023/03/16 00:33:00;;;;;;;18.90;14.67;;;2.50;99.90;;;;;;5011247;28;20558;-67
2023/03/16 00:35:26;;;;;;;15.10;13.32;;;2.50;99.90;;;;;;5008741;28;20190;-67
2023/03/16 00:37:56;;;;;;;14.57;12.93;;;1.80;99.90;;;;;;5009396;28;20206;-67
2023/03/16 00:40:22;;;;;;;14.93;13.35;;;2.20;99.90;;;;;;5008936;28;20513;-68
2023/03/16 00:42:48;;;;;;;16.45;13.90;;;2.50;99.90;;;;;;5024894;28;20184;-67
2023/03/16 00:45:13;;;;;;;16.70;14.00;;;1.70;99.90;;;;;;5009769;28;20287;-68
2023/03/16 00:47:41;;;;;;;13.70;12.30;;;2.20;99.90;;;;;;5008195;28;20211;-67
2023/03/16 00:50:06;;;;;;;13.77;12.30;;;2.30;99.90;;;;;;5010433;28;20257;-68
2023/03/16 00:52:34;;;;;;;15.23;13.60;;;2.20;99.90;;;;;;5013327;28;20187;-68
2023/03/16 00:55:02;;;;;;;15.63;13.40;;;2.30;99.90;;;;;;5009824;28;20442;-67
2023/03/16 00:57:28;;;;;;;16.23;13.40;;;2.40;99.90;;;;;;5008980;28;20191;-68
2023/03/16 00:59:54;;;;;;;18.20;13.45;;;1.90;99.90;;;;;;5008748;28;20226;-68
2023/03/16 01:02:23;;;;;;;17.03;13.70;;;2.30;99.90;;;;;;5010338;28;20234;-67
2023/03/16 01:04:49;;;;;;;17.38;14.60;;;2.30;99.90;;;;;;5003699;28;20448;-68
2023/03/16 01:07:15;;;;;;;15.43;13.68;;;2.50;99.90;;;;;;5010225;28;20209;-68
2023/03/16 01:09:41;;;;;;;15.60;13.17;;;2.20;99.90;;;;;;5009267;28;20741;-67
2023/03/16 01:12:10;;;;;;;15.13;13.52;;;2.30;99.90;;;;;;5008108;28;20254;-67
2023/03/16 01:14:36;;;;;;;14.38;12.50;;;2.20;99.90;;;;;;5010617;28;20242;-68
2023/03/16 01:17:03;;;;;;;17.85;13.23;;;2.00;99.90;;;;;;5009577;28;20183;-68
2023/03/16 01:19:34;;;;;;;14.35;12.65;;;2.20;99.90;;;;;;5007332;28;20219;-68
2023/03/16 01:22:04;;;;;;;15.13;12.77;;;2.10;99.90;;;;;;5009576;28;20206;-68
2023/03/16 01:24:30;;;;;;;16.02;13.75;;;2.20;99.90;;;;;;5008678;28;20183;-68
2023/03/16 01:26:56;;;;;;;15.52;12.30;;;2.10;99.90;;;;;;5010237;28;20186;-68
2023/03/16 01:29:22;;;;;;;14.50;13.00;;;1.70;99.90;;;;;;5010344;28;20207;-68
2023/03/16 01:31:50;;;;;;;17.87;13.33;;;2.20;99.90;;;;;;5008806;28;20228;-67
2023/03/16 01:34:17;;;;;;;17.85;15.05;;;2.10;99.90;;;;;;5004656;28;20443;-67
2023/03/16 01:36:46;;;;;;;15.82;13.00;;;1.60;99.90;;;;;;5007386;28;20274;-67
2023/03/16 01:39:12;;;;;;;16.00;12.90;;;1.80;99.90;;;;;;5009129;28;20577;-68
2023/03/16 01:41:38;;;;;;;15.63;12.23;;;1.80;99.90;;;;;;5005892;28;20630;-67
2023/03/16 01:44:04;;;;;;;15.18;12.85;;;1.80;99.90;;;;;;5009809;28;20192;-67
2023/03/16 01:46:31;;;;;;;17.80;13.13;;;2.10;99.90;;;;;;5009689;28;20646;-67
2023/03/16 01:49:11;;;;;;;15.63;13.60;;;1.50;99.90;;;;;;5008704;28;20206;-67
2023/03/16 01:51:42;;;;;;;16.30;13.38;;;1.40;99.90;;;;;;5010101;28;20554;-67
2023/03/16 01:54:13;;;;;;;15.88;14.07;;;2.10;99.90;;;;;;5009449;28;20188;-68
2023/03/16 01:56:44;;;;;;;16.05;13.63;;;2.00;99.90;;;;;;5010251;28;20183;-67
2023/03/16 01:59:15;;;;;;;16.42;13.23;;;2.00;99.90;;;;;;5008373;28;20211;-67
2023/03/16 02:01:41;;;;;;;14.35;12.80;;;2.10;99.90;;;;;;5012228;28;20187;-68
2023/03/16 02:04:17;;;;;;;18.23;14.97;;;2.00;99.90;;;;;;5013991;28;20185;-67
2023/03/16 02:06:43;;;;;;;19.75;16.27;;;1.90;99.90;;;;;;5008933;28;20951;-68
2023/03/16 02:09:09;;;;;;;17.67;14.48;;;1.90;99.90;;;;;;5012398;28;20193;-67
2023/03/16 02:11:35;;;;;;;18.55;14.50;;;1.70;99.90;;;;;;5011619;28;20592;-67
2023/03/16 02:14:06;;;;;;;19.23;15.00;;;2.40;99.90;;;;;;5013848;28;20179;-68
2023/03/16 02:16:32;;;;;;;18.20;15.10;;;2.40;99.90;;;;;;5012724;28;20433;-67
2023/03/16 02:18:58;;;;;;;17.60;15.70;;;1.80;99.90;;;;;;5011052;28;20265;-68
2023/03/16 02:21:45;;;;;;;18.48;15.15;;;2.00;99.90;;;;;;5012701;28;20612;-68
2023/03/16 02:24:11;;;;;;;18.52;16.50;;;2.20;99.90;;;;;;5009074;28;20237;-67
2023/03/16 02:26:47;;;;;;;17.63;15.40;;;1.60;99.90;;;;;;5012241;28;20176;-67
2023/03/16 02:29:18;;;;;;;18.98;15.50;;;2.30;99.90;;;;;;5013425;28;20187;-68
2023/03/16 02:31:43;;;;;;;19.08;15.25;;;2.50;99.90;;;;;;5013358;28;20190;-67
2023/03/16 02:34:10;;;;;;;20.70;16.40;;;2.70;99.90;;;;;;5011484;28;20202;-67
2023/03/16 02:36:38;;;;;;;18.75;15.25;;;1.50;99.90;;;;;;5012417;28;20208;-67
2023/03/16 02:39:04;;;;;;;21.42;16.92;;;2.30;99.90;;;;;;5012450;28;20213;-67
2023/03/16 02:41:31;;;;;;;17.05;14.68;;;2.10;99.90;;;;;;5010874;28;20187;-68
2023/03/16 02:44:05;;;;;;;17.38;15.40;;;2.00;99.90;;;;;;5013603;28;20186;-68
2023/03/16 02:46:34;;;;;;;20.85;16.00;;;2.20;99.90;;;;;;5011360;28;20183;-67
2023/03/16 02:49:11;;;;;;;18.02;15.05;;;2.20;99.90;;;;;;5009634;28;20280;-67
2023/03/16 02:51:36;;;;;;;17.20;14.27;;;1.70;99.90;;;;;;5009061;28;20190;-67
2023/03/16 02:54:02;;;;;;;18.43;15.13;;;2.00;99.90;;;;;;5012702;28;20187;-67
2023/03/16 02:56:28;;;;;;;19.77;16.43;;;2.30;99.90;;;;;;5009921;28;20262;-67
2023/03/16 02:58:56;;;;;;;17.17;15.27;;;1.50;99.90;;;;;;5010654;28;20630;-68
2023/03/16 03:01:22;;;;;;;17.10;14.18;;;2.10;99.90;;;;;;5010614;28;20201;-67
2023/03/16 03:03:48;;;;;;;18.35;15.60;;;2.30;99.90;;;;;;5008168;28;20611;-67
2023/03/16 03:06:14;;;;;;;19.03;16.30;;;1.50;99.90;;;;;;5011287;28;20189;-67
2023/03/16 03:08:41;;;;;;;18.20;15.50;;;2.00;99.90;;;;;;5011618;28;20193;-67
2023/03/16 03:11:07;;;;;;;18.60;15.18;;;2.00;99.90;;;;;;5008700;28;20974;-67
2023/03/16 03:13:34;;;;;;;19.85;16.25;;;1.60;99.90;;;;;;5011552;28;20201;-67
2023/03/16 03:16:00;;;;;;;18.73;15.73;;;2.00;99.90;;;;;;5010779;28;20317;-68
2023/03/16 03:18:26;;;;;;;20.05;16.35;;;2.10;99.90;;;;;;5009689;28;20218;-67
2023/03/16 03:20:52;;;;;;;19.93;16.87;;;1.90;99.90;;;;;;5010832;28;20199;-67
2023/03/16 03:23:17;;;;;;;18.97;15.37;;;1.90;99.90;;;;;;5012043;28;20271;-67
2023/03/16 03:25:44;;;;;;;21.63;16.20;;;2.00;99.90;;;;;;5010253;28;20434;-68
2023/03/16 03:28:10;;;;;;;18.83;15.68;;;2.00;99.90;;;;;;5011039;28;20547;-68
2023/03/16 03:30:36;;;;;;;17.67;15.73;;;2.00;99.90;;;;;;5002976;28;20218;-67
2023/03/16 03:33:02;;;;;;;21.13;17.37;;;1.70;99.90;;;;;;5011359;28;20179;-68
2023/03/16 03:35:28;;;;;;;22.98;17.60;;;2.00;99.90;;;;;;5010533;28;20441;-68
2023/03/16 03:37:53;;;;;;;18.63;16.20;;;1.60;99.90;;;;;;5010435;28;20249;-68
2023/03/16 03:40:20;;;;;;;21.10;17.37;;;1.30;99.90;;;;;;5000589;28;20587;-67
2023/03/16 03:42:45;;;;;;;18.95;15.98;;;1.70;99.90;;;;;;5010827;28;20179;-67
2023/03/16 03:45:13;;;;;;;19.73;16.80;;;1.70;99.90;;;;;;5008964;28;20190;-68
2023/03/16 03:47:39;;;;;;;18.73;16.73;;;1.90;99.90;;;;;;4971290;28;1146059;-68
2023/03/16 03:50:06;;;;;;;17.95;15.10;;;1.80;99.90;;;;;;5012032;28;20273;-68
2023/03/16 03:52:32;;;;;;;17.95;16.05;;;1.70;99.90;;;;;;5012084;28;20250;-67
2023/03/16 03:54:57;;;;;;;19.87;16.87;;;1.10;99.90;;;;;;5009432;28;20314;-68
2023/03/16 03:57:23;;;;;;;19.50;15.93;;;1.20;99.90;;;;;;5011366;28;20176;-67
2023/03/16 03:59:48;;;;;;;20.23;17.07;;;2.20;99.90;;;;;;5009169;28;20217;-67
2023/03/16 04:02:14;;;;;;;18.83;15.53;;;1.70;99.90;;;;;;5012531;28;20278;-67
2023/03/16 04:04:41;;;;;;;20.05;17.80;;;1.60;99.90;;;;;;5010041;28;20269;-68
2023/03/16 04:07:07;;;;;;;17.92;16.02;;;1.60;99.90;;;;;;5009904;28;20187;-68
2023/03/16 04:09:33;;;;;;;18.47;15.93;;;1.30;99.90;;;;;;5008285;28;20732;-68
2023/03/16 04:12:00;;;;;;;20.93;16.27;;;1.50;99.90;;;;;;5009576;28;20785;-68
2023/03/16 04:14:27;;;;;;;22.17;16.90;;;1.50;99.90;;;;;;5043178;28;20194;-67
2023/03/16 04:16:53;;;;;;;19.67;16.20;;;1.60;99.90;;;;;;5010774;28;20237;-67
2023/03/16 04:19:22;;;;;;;17.67;15.82;;;1.60;99.90;;;;;;5009777;28;20244;-67
2023/03/16 04:21:49;;;;;;;19.85;16.38;;;1.40;99.90;;;;;;5009419;28;20179;-67
2023/03/16 04:24:15;;;;;;;16.15;14.43;;;1.90;99.90;;;;;;5010861;28;20191;-68
2023/03/16 04:26:43;;;;;;;20.23;15.77;;;1.60;99.90;;;;;;5010231;28;20182;-68
2023/03/16 04:29:13;;;;;;;20.58;15.70;;;1.60;99.90;;;;;;5011250;28;20287;-68
2023/03/16 04:31:41;;;;;;;17.95;16.05;;;1.60;99.90;;;;;;5011223;28;20179;-67
2023/03/16 04:34:07;;;;;;;19.35;15.60;;;1.10;99.90;;;;;;5010029;28;20210;-67
2023/03/16 04:36:33;;;;;;;19.27;14.85;;;1.50;99.90;;;;;;5010276;28;20222;-67
2023/03/16 04:38:58;;;;;;;18.23;14.87;;;1.60;99.90;;;;;;5016330;28;20211;-67
2023/03/16 04:41:25;;;;;;;19.70;16.30;;;1.10;99.90;;;;;;5010921;28;20488;-67
2023/03/16 04:43:50;;;;;;;17.15;14.48;;;1.60;99.90;;;;;;5011440;28;20207;-67
2023/03/16 04:46:16;;;;;;;19.70;15.90;;;1.10;99.90;;;;;;5010036;28;20208;-67
2023/03/16 04:48:42;;;;;;;16.67;14.00;;;1.40;99.90;;;;;;5008618;28;20513;-67
2023/03/16 04:51:07;;;;;;;18.80;15.50;;;1.00;99.90;;;;;;5009444;28;20575;-68
2023/03/16 04:53:34;;;;;;;18.37;15.43;;;1.20;99.90;;;;;;5005506;28;20183;-67
2023/03/16 04:55:59;;;;;;;18.58;15.88;;;0.90;99.90;;;;;;5007029;28;20266;-68
2023/03/16 04:58:25;;;;;;;17.07;14.63;;;1.60;99.90;;;;;;5008098;28;20298;-68
2023/03/16 05:00:52;;;;;;;20.40;14.30;;;1.80;99.90;;;;;;5008552;28;20457;-67
2023/03/16 05:03:18;;;;;;;17.70;15.10;;;2.00;99.90;;;;;;5007396;28;20434;-68
2023/03/16 05:05:45;;;;;;;17.07;14.13;;;1.70;99.90;;;;;;5008827;28;20567;-67
2023/03/16 05:08:11;;;;;;;18.45;14.60;;;1.00;99.90;;;;;;5009303;28;20198;-67
2023/03/16 05:10:37;;;;;;;18.57;15.37;;;1.10;99.90;;;;;;5006376;28;20302;-67
2023/03/16 05:13:04;;;;;;;17.95;13.80;;;1.40;99.90;;;;;;5008983;28;20190;-64
2023/03/16 05:15:30;;;;;;;18.67;15.80;;;1.70;99.90;;;;;;5009121;28;20179;-67
2023/03/16 05:17:56;;;;;;;20.17;15.68;;;1.50;99.90;;;;;;5007397;28;20270;-67
2023/03/16 05:20:23;;;;;;;18.45;15.50;;;0.90;99.90;;;;;;5005587;28;20297;-67
2023/03/16 05:22:49;;;;;;;17.00;13.60;;;1.30;99.90;;;;;;5005602;28;20728;-67
2023/03/16 05:25:16;;;;;;;19.30;15.35;;;1.60;99.90;;;;;;5005202;28;20175;-67
2023/03/16 05:27:49;;;;;;;14.77;12.90;;;1.60;99.90;;;;;;5005125;28;20191;-67
2023/03/16 05:30:17;;;;;;;18.02;14.13;;;1.40;99.90;;;;;;5008561;28;20202;-67
2023/03/16 05:32:43;;;;;;;19.63;14.98;;;1.70;99.90;;;;;;5008563;28;20187;-68
2023/03/16 05:35:12;;;;;;;17.60;14.35;;;1.80;99.90;;;;;;5004029;28;20191;-67
2023/03/16 05:37:38;;;;;;;15.90;13.88;;;1.20;99.90;;;;;;5007012;28;20563;-70
2023/03/16 05:40:21;;;;;;;16.42;13.75;;;1.10;99.90;;;;;;5005909;28;20215;-67
2023/03/16 05:42:52;;;;;;;18.02;14.15;;;1.60;99.90;;;;;;5007639;28;20624;-68
2023/03/16 05:45:18;;;;;;;18.58;13.38;;;1.40;99.90;;;;;;5008639;28;20188;-67
2023/03/16 05:47:44;;;;;;;20.00;14.80;;;1.70;99.90;;;;;;5009183;28;20553;-67
2023/03/16 05:50:12;;;;;;;16.03;13.33;;;0.90;99.90;;;;;;5007940;28;20821;-69
2023/03/16 05:52:39;;;;;;;19.13;15.13;;;1.30;99.90;;;;;;5011585;28;20528;-69
2023/03/16 05:55:06;;;;;;;20.77;15.48;;;1.60;99.90;;;;;;5008199;28;20183;-70
2023/03/16 05:57:33;;;;;;;20.95;14.65;;;1.60;99.90;;;;;;5008591;28;20329;-66
2023/03/16 06:00:00;;;;;;;20.38;15.02;;;1.90;99.90;;;;;;5007618;28;20222;-66
2023/03/16 06:02:27;;;;;;;18.20;14.48;;;1.70;99.90;;;;;;5009803;28;20187;-67
2023/03/16 06:04:52;;;;;;;19.35;14.95;;;1.70;99.90;;;;;;5007445;28;20179;-67
2023/03/16 06:07:18;;;;;;;22.90;13.80;;;2.20;99.90;;;;;;5006917;28;20215;-68
2023/03/16 06:09:44;;;;;;;17.60;14.93;;;1.90;99.90;;;;;;5005703;28;20462;-68
2023/03/16 06:12:10;;;;;;;20.07;14.23;;;2.20;99.90;;;;;;5006672;28;20942;-66
2023/03/16 06:14:36;;;;;;;17.10;14.30;;;1.60;99.90;;;;;;5007681;28;20209;-66
2023/03/16 06:17:01;;;;;;;21.93;14.90;;;1.60;99.90;;;;;;5009154;28;20421;-66
2023/03/16 06:19:27;;;;;;;20.10;15.10;;;1.60;99.90;;;;;;5003290;28;20234;-66
2023/03/16 06:21:52;;;;;;;18.67;14.73;;;1.90;99.90;;;;;;5007982;28;20175;-66
2023/03/16 06:24:18;;;;;;;17.00;13.50;;;1.50;99.90;;;;;;5009259;28;20559;-67
2023/03/16 06:26:44;;;;;;;20.57;15.13;;;2.10;99.90;;;;;;5008641;28;20229;-66
2023/03/16 06:29:09;;;;;;;21.47;15.27;;;1.90;99.90;;;;;;5007013;28;20241;-67
2023/03/16 06:31:35;;;;;;;17.03;14.43;;;1.90;99.90;;;;;;5009429;28;20599;-66
2023/03/16 06:34:01;;;;;;;16.47;13.47;;;2.00;99.90;;;;;;5006872;28;20187;-69
2023/03/16 06:36:27;;;;;;;16.03;14.33;;;2.00;99.90;;;;;;5003055;28;20446;-69
2023/03/16 06:38:53;;;;;;;17.37;14.00;;;2.00;99.90;;;;;;5007692;28;20855;-69
2023/03/16 06:41:18;;;;;;;20.10;14.03;;;1.70;99.90;;;;;;4992042;28;20474;-71
2023/03/16 06:43:44;;;;;;;16.63;13.50;;;2.40;99.90;;;;;;5006567;28;20447;-68
2023/03/16 06:46:10;;;;;;;21.10;14.10;;;1.60;99.90;;;;;;5011898;28;20680;-69
2023/03/16 06:48:35;;;;;;;20.40;15.23;;;2.30;99.90;;;;;;5012562;28;20234;-69
2023/03/16 06:51:01;;;;;;;17.93;13.40;;;2.20;99.90;;;;;;5008444;28;20210;-69
2023/03/16 06:53:27;;;;;;;16.63;13.90;;;2.30;99.90;;;;;;5013099;28;20227;-69
2023/03/16 06:55:52;;;;;;;20.07;15.73;;;2.50;99.90;;;;;;5011673;28;20237;-68
2023/03/16 06:58:18;;;;;;;19.23;14.83;;;2.40;99.90;;;;;;5011491;28;20231;-71
2023/03/16 07:00:44;;;;;;;18.42;15.10;;;2.70;99.90;;;;;;5010841;28;20218;-69
2023/03/16 07:03:10;;;;;;;17.97;15.10;;;2.50;99.90;;;;;;5008209;28;20274;-71
2023/03/16 07:05:35;;;;;;;20.27;14.23;;;2.20;99.90;;;;;;5017006;28;20219;-70
2023/03/16 07:08:01;;;;;;;22.20;15.20;;;2.60;99.90;;;;;;5017135;28;20184;-70
2023/03/16 07:10:26;;;;;;;22.10;15.00;;;3.40;99.90;;;;;;5010911;28;20284;-71
2023/03/16 07:12:54;;;;;;;17.73;13.87;;;3.00;99.90;;;;;;5009718;28;20256;-72
2023/03/16 07:15:20;;;;;;;17.40;14.32;;;3.10;99.90;;;;;;5010339;28;20223;-70
2023/03/16 07:17:46;;;;;;;15.73;13.05;;;3.60;99.90;;;;;;5011806;28;20189;-70
2023/03/16 07:20:12;;;;;;;14.57;12.10;;;3.80;99.90;;;;;;5011647;28;20292;-72
2023/03/16 07:22:38;;;;;;;15.80;13.17;;;4.50;99.90;;;;;;5013815;28;20186;-71
2023/03/16 07:25:05;;;;;;;13.70;11.52;;;5.20;99.90;;;;;;5012992;28;20329;-69
2023/03/16 07:27:31;;;;;;;14.48;11.90;;;6.10;99.90;;;;;;5012012;28;20182;-68
2023/03/16 07:29:58;;;;;;;12.93;11.53;;;7.00;99.90;;;;;;5011946;28;20218;-67
2023/03/16 07:32:24;;;;;;;14.57;11.00;;;7.60;99.90;;;;;;5004831;28;20835;-69
2023/03/16 07:34:50;;;;;;;15.00;11.53;;;8.00;99.90;;;;;;5012425;28;20191;-70
2023/03/16 07:37:15;;;;;;;12.50;11.20;;;8.90;99.90;;;;;;5011798;28;20232;-70
2023/03/16 07:39:41;;;;;;;15.40;11.43;;;9.30;99.00;;;;;;5011043;28;20228;-69
2023/03/16 07:42:07;;;;;;;11.77;10.60;;;9.70;98.20;;;;;;5012518;28;20212;-69
2023/03/16 07:44:33;;;;;;;12.00;10.80;;;9.80;96.50;;;;;;5011985;28;20717;-68
2023/03/16 07:46:58;;;;;;;11.00;9.37;;;10.20;95.60;;;;;;5010398;28;20479;-70
2023/03/16 07:49:24;;;;;;;11.00;9.70;;;10.90;94.40;;;;;;5011196;28;20226;-68
2023/03/16 07:51:50;;;;;;;12.00;10.60;;;12.30;92.90;;;;;;5011943;28;20186;-66
2023/03/16 07:54:16;;;;;;;13.17;11.50;;;11.80;90.20;;;;;;5009326;28;20213;-69
2023/03/16 07:56:41;;;;;;;11.97;10.60;;;11.80;90.30;;;;;;5010486;28;20226;-68
2023/03/16 07:59:07;;;;;;;12.57;10.20;;;11.80;90.40;;;;;;5012063;28;20564;-67
2023/03/16 08:01:33;;;;;;;10.70;9.43;;;12.50;90.20;;;;;;5006954;28;20191;-67
2023/03/16 08:04:00;;;;;;;10.50;9.30;;;13.60;87.10;;;;;;5009740;28;20186;-68
2023/03/16 08:06:26;;;;;;;10.68;9.60;;;13.30;83.90;;;;;;5010729;28;20260;-67
2023/03/16 08:08:52;;;;;;;12.95;11.55;;;14.60;83.00;;;;;;5010955;28;20229;-66
2023/03/16 08:11:22;;;;;;;10.00;9.00;;;14.20;78.20;;;;;;5005471;28;20246;-66
2023/03/16 08:13:52;;;;;;;8.85;8.05;;;13.60;81.20;;;;;;5010929;28;20186;-67
2023/03/16 08:16:20;;;;;;;9.55;8.65;;;13.90;80.20;;;;;;5008885;28;20191;-66
2023/03/16 08:18:46;;;;;;;12.10;10.10;;;12.60;81.20;;;;;;5010236;28;20668;-67
2023/03/16 08:21:12;;;;;;;9.32;8.30;;;12.60;82.30;;;;;;5010796;28;20732;-66
2023/03/16 08:23:37;;;;;;;9.80;8.80;;;12.50;84.60;;;;;;5009884;28;20273;-68
2023/03/16 08:26:07;;;;;;;11.10;9.07;;;12.40;83.70;;;;;;5009237;28;20198;-68
2023/03/16 08:28:34;;;;;;;10.63;8.30;;;12.10;84.40;;;;;;5009461;28;20211;-68
2023/03/16 08:31:00;;;;;;;9.00;8.05;;;12.40;84.30;;;;;;5008783;28;20206;-66
2023/03/16 08:33:26;;;;;;;8.80;7.90;;;11.20;84.90;;;;;;5007982;28;20221;-71
2023/03/16 08:35:53;;;;;;;7.75;6.82;;;10.90;87.50;;;;;;5009375;28;20239;-72
2023/03/16 08:38:19;;;;;;;10.10;7.40;;;10.20;88.70;;;;;;5003981;28;20512;-70
2023/03/16 08:40:47;;;;;;;8.50;7.27;;;10.20;90.40;;;;;;5005010;28;20212;-68
2023/03/16 08:43:17;;;;;;;7.85;7.10;;;11.10;90.40;;;;;;5002582;28;20434;-68
2023/03/16 08:45:47;;;;;;;7.40;6.70;;;12.20;87.00;;;;;;5006834;28;20175;-70
2023/03/16 08:48:13;;;;;;;7.93;7.18;;;12.60;83.00;;;;;;5007657;28;20206;-69
2023/03/16 08:50:43;;;;;;;6.63;5.93;;;13.20;83.40;;;;;;5006375;28;20579;-69
2023/03/16 08:53:10;;;;;;;6.03;5.43;;;13.90;82.10;;;;;;5003150;28;20714;-67
2023/03/16 08:55:36;;;;;;;7.80;5.90;;;13.80;77.90;;;;;;5006724;28;20183;-70
2023/03/16 08:58:02;;;;;;;5.97;5.38;;;13.10;78.50;;;;;;5006568;28;20740;-69
2023/03/16 09:00:28;;;;;;;6.05;5.10;;;13.30;78.30;;;;;;5005387;28;20203;-68
2023/03/16 09:02:54;;;;;;;5.67;5.07;;;12.60;79.10;;;;;;5007734;28;20233;-66
2023/03/16 09:05:22;;;;;;;5.60;5.10;;;12.40;80.90;;;;;;5008316;28;20183;-67
2023/03/16 09:07:48;;;;;;;6.47;4.75;;;13.00;80.10;;;;;;5004588;28;20473;-66
2023/03/16 09:10:14;;;;;;;5.35;4.85;;;12.50;79.00;;;;;;5004403;28;20202;-67
2023/03/16 09:12:42;;;;;;;5.63;5.03;;;12.40;79.50;;;;;;5004214;28;20269;-70
2023/03/16 09:15:10;;;;;;;5.13;4.60;;;12.80;79.70;;;;;;5022336;28;20282;-71
2023/03/16 09:17:37;;;;;;;5.25;4.85;;;13.20;78.60;;;;;;5011468;28;20190;-69
2023/03/16 09:20:08;;;;;;;5.25;4.75;;;13.30;78.30;;;;;;5007725;28;20640;-68
2023/03/16 09:22:35;;;;;;;6.28;4.40;;;13.40;75.50;;;;;;5008727;28;20209;-70
2023/03/16 09:25:00;;;;;;;5.05;4.47;;;13.80;74.90;;;;;;5000652;28;20191;-70
2023/03/16 09:27:26;;;;;;;5.07;4.50;;;13.90;75.20;;;;;;5008603;28;20270;-69
2023/03/16 09:29:55;;;;;;;5.67;5.07;;;14.60;73.40;;;;;;5038000;28;20639;-69
2023/03/16 09:32:21;;;;;;;5.35;4.70;;;15.00;71.70;;;;;;5008614;28;20221;-70
2023/03/16 09:34:46;;;;;;;5.60;5.10;;;14.90;71.50;;;;;;5007669;28;20211;-70
2023/03/16 09:37:13;;;;;;;6.03;5.47;;;14.60;70.80;;;;;;5007501;28;20442;-70
2023/03/16 09:39:38;;;;;;;5.65;5.15;;;14.50;71.50;;;;;;4997500;28;20218;-71
2023/03/16 09:42:31;;;;;;;6.00;5.50;;;14.60;73.30;;;;;;5008470;28;20556;-71
2023/03/16 09:45:37;;;;;;;5.55;4.82;;;14.50;72.40;;;;;;5003176;28;20190;-70
2023/03/16 09:48:04;;;;;;;6.63;5.07;;;15.10;72.50;;;;;;5003285;28;20568;-71
2023/03/16 09:50:37;;;;;;;4.80;4.30;;;15.80;68.80;;;;;;5004617;28;20198;-69
2023/03/16 09:53:33;;;;;;;4.93;4.43;;;16.50;67.30;;;;;;5001990;28;20184;-69
2023/03/16 09:56:28;;;;;;;5.63;4.97;;;16.50;65.50;;;;;;5000952;28;20179;-69
2023/03/16 09:58:55;;;;;;;5.18;4.75;;;17.30;63.20;;;;;;5006065;28;20227;-70
2023/03/16 10:01:36;;;;;;;5.15;4.65;;;17.20;62.10;;;;;;5006029;28;20195;-76
2023/03/16 10:04:24;;;;;;;5.30;4.80;;;16.90;60.90;;;;;;5006418;28;20183;-71
2023/03/16 10:07:01;;;;;;;5.60;4.90;;;16.80;61.60;;;;;;5035845;28;20187;-71
2023/03/16 10:09:34;;;;;;;5.10;4.70;;;16.60;61.80;;;;;;5013233;28;20676;-73
2023/03/16 10:12:02;;;;;;;5.13;4.72;;;17.00;61.30;;;;;;5009065;28;20218;-70
2023/03/16 10:15:06;;;;;;;4.80;4.40;;;16.90;59.40;;;;;;5013776;28;20194;-70
2023/03/16 10:17:37;;;;;;;5.43;4.93;;;17.00;59.50;;;;;;5002841;28;20436;-68
2023/03/16 10:20:07;;;;;;;5.55;5.00;;;16.90;60.00;;;;;;5003894;28;20273;-73
2023/03/16 10:22:38;;;;;;;5.15;4.68;;;16.90;60.50;;;;;;5006137;28;20690;-69
2023/03/16 10:25:11;;;;;;;5.43;4.50;;;16.40;60.20;;;;;;5009864;28;20179;-69
2023/03/16 10:27:40;;;;;;;5.60;4.95;;;16.70;60.80;;;;;;5009556;28;20183;-69
2023/03/16 10:30:28;;;;;;;6.28;4.40;;;16.50;61.30;;;;;;5009809;28;20214;-69
2023/03/16 10:32:59;;;;;;;5.80;5.05;;;16.10;63.50;;;;;;5006669;28;20194;-69
2023/03/16 10:35:52;;;;;;;5.32;4.90;;;16.50;62.80;;;;;;5009535;28;20736;-69
2023/03/16 10:38:38;;;;;;;5.68;5.18;;;16.90;61.30;;;;;;5010923;28;20924;-69
2023/03/16 10:41:15;;;;;;;5.57;5.07;;;16.60;61.50;;;;;;5009487;28;20218;-70
2023/03/16 10:43:41;;;;;;;4.50;4.10;;;16.20;61.80;;;;;;5009502;28;20181;-69
2023/03/16 10:46:10;;;;;;;5.00;4.60;;;15.40;61.80;;;;;;5009167;28;20191;-69
2023/03/16 10:48:36;;;;;;;4.65;4.25;;;15.60;63.00;;;;;;5005224;28;20294;-69
2023/03/16 10:51:12;;;;;;;5.13;4.63;;;15.20;62.80;;;;;;5011465;28;20349;-69
2023/03/16 10:53:42;;;;;;;10.60;4.80;;;15.40;63.90;;;;;;5013020;28;20364;-69
2023/03/16 10:56:18;;;;;;;4.00;3.67;;;15.50;63.50;;;;;;5009639;28;20633;-69
2023/03/16 10:58:45;;;;;;;4.60;4.20;;;16.00;60.80;;;;;;5012382;28;20277;-72
2023/03/16 11:01:22;;;;;;;3.40;3.10;;;16.30;59.20;;;;;;5012129;28;20211;-73
2023/03/16 11:03:50;;;;;;;4.60;4.20;;;17.20;57.60;;;;;;5007876;28;20609;-72
2023/03/16 11:06:29;;;;;;;3.40;3.10;;;17.40;56.60;;;;;;5003467;28;20201;-71
2023/03/16 11:09:21;;;;;;;4.13;3.72;;;17.20;56.60;;;;;;5013183;28;20213;-71
2023/03/16 11:11:48;;;;;;;3.90;3.50;;;17.30;56.80;;;;;;5006613;28;20201;-69
2023/03/16 11:14:17;;;;;;;3.75;3.45;;;17.00;56.20;;;;;;5009220;28;20201;-69
2023/03/16 11:16:49;;;;;;;4.65;3.83;;;17.20;56.80;;;;;;5009101;28;20724;-70
2023/03/16 11:19:31;;;;;;;4.32;3.22;;;17.40;56.30;;;;;;5009401;28;20365;-70
2023/03/16 11:22:19;;;;;;;3.70;2.90;;;17.40;55.10;;;;;;5009435;28;20595;-71
2023/03/16 11:25:05;;;;;;;7.20;6.30;;;17.30;54.80;;;;;;5007390;28;20250;-71
2023/03/16 11:28:10;;;;;;;3.83;2.75;;;16.90;55.90;;;;;;5006718;28;20556;-70
2023/03/16 11:30:41;;;;;;;2.90;2.70;;;17.20;56.30;;;;;;5010583;28;20297;-70
2023/03/16 11:33:12;;;;;;;5.65;3.10;;;17.10;56.20;;;;;;5011179;28;20602;-72
2023/03/16 11:35:52;;;;;;;2.90;2.67;;;16.70;55.20;;;;;;5010443;28;20226;-71
2023/03/16 11:38:25;;;;;;;3.90;3.15;;;16.30;56.90;;;;;;5009629;28;20202;-71
2023/03/16 11:41:14;;;;;;;4.75;3.53;;;16.50;57.70;;;;;;5008155;28;20207;-69
2023/03/16 11:43:52;;;;;;;12.35;9.77;;;16.40;58.20;;;;;;5009390;28;20193;-70
2023/03/16 11:46:41;;;;;;;3.28;2.97;;;16.00;56.80;;;;;;5012043;28;20186;-70
2023/03/16 11:49:43;;;;;;;3.60;2.45;;;15.70;57.70;;;;;;5009068;28;20226;-68
2023/03/16 11:52:27;;;;;;;3.15;2.90;;;15.80;58.30;;;;;;5006787;28;20651;-69
2023/03/16 11:55:12;;;;;;;2.97;2.67;;;15.70;58.70;;;;;;5005186;28;20273;-69
2023/03/16 11:58:09;;;;;;;3.88;3.58;;;15.60;59.10;;;;;;5004905;28;20182;-70
2023/03/16 12:00:58;;;;;;;3.70;3.40;;;15.50;59.30;;;;;;5007606;28;20223;-70
2023/03/16 12:03:24;;;;;;;3.47;2.88;;;15.60;60.40;;;;;;5011818;28;20205;-68
2023/03/16 12:05:55;;;;;;;3.70;3.40;;;15.60;59.70;;;;;;5012945;28;20833;-69
2023/03/16 12:08:27;;;;;;;4.13;3.17;;;15.50;59.80;;;;;;5003013;28;20798;-69
2023/03/16 12:11:01;;;;;;;3.15;2.85;;;15.80;59.60;;;;;;5009745;28;20253;-67
2023/03/16 12:13:37;;;;;;;3.33;3.03;;;15.60;59.50;;;;;;5003662;28;20699;-70
2023/03/16 12:16:30;;;;;;;3.10;2.80;;;15.60;58.60;;;;;;5010323;28;20191;-70
2023/03/16 12:19:02;;;;;;;3.97;3.20;;;15.70;58.40;;;;;;5007921;28;20337;-69
2023/03/16 12:21:35;;;;;;;4.53;3.50;;;15.80;59.10;;;;;;5005726;28;20217;-70
2023/03/16 12:24:09;;;;;;;3.60;3.08;;;15.90;59.30;;;;;;5007106;28;20183;-69
2023/03/16 12:26:39;;;;;;;3.35;3.05;;;15.30;59.10;;;;;;5009271;28;20198;-69
2023/03/16 12:29:32;;;;;;;3.00;2.60;;;15.20;59.20;;;;;;5010738;28;20552;-72
2023/03/16 12:32:14;;;;;;;5.57;3.38;;;15.30;59.00;;;;;;5005350;28;20193;-71
2023/03/16 12:34:44;;;;;;;4.47;3.67;;;14.80;59.30;;;;;;5003761;28;20186;-71
2023/03/16 12:37:35;;;;;;;3.35;2.83;;;14.70;60.40;;;;;;5008173;28;20187;-72
2023/03/16 12:40:29;;;;;;;3.97;2.97;;;14.70;62.50;;;;;;5005447;28;20218;-67
2023/03/16 12:43:13;;;;;;;5.65;3.25;;;14.50;61.30;;;;;;5005017;28;20189;-69
2023/03/16 12:45:42;;;;;;;3.28;2.30;;;14.50;62.60;;;;;;5006714;28;20248;-68
2023/03/16 12:48:18;;;;;;;3.47;2.90;;;15.00;61.50;;;;;;5002588;28;20664;-68
2023/03/16 12:50:58;;;;;;;4.43;4.03;;;14.60;60.50;;;;;;5008983;28;20297;-68
2023/03/16 12:53:26;;;;;;;5.47;4.85;;;14.70;60.30;;;;;;5007291;28;20183;-68